Time;durP1;ratioP1;P1;durP2;ratioP2;P2;SDS_P1;SDS_P2;PMS_P1;PMS_P2;Temp;Humidity;BMP_temperature;BMP_pressure;BME280_temperature;BME280_humidity;BME280_pressure;Samples;Min_cycle;Max_cycle;Signal;HPM_P1;HPM_P2
2021/12/14 00:01:50;;;;;;;4.50;3.90;;;9.20;99.90;;;;;;5080214;28;20418;-84
2021/12/14 00:04:32;;;;;;;4.33;3.93;;;9.50;99.90;;;;;;5081244;28;20882;-85
2021/12/14 00:07:01;;;;;;;4.40;4.00;;;9.30;99.90;;;;;;5070892;28;20443;-85
2021/12/14 00:09:33;;;;;;;4.17;3.77;;;9.40;99.90;;;;;;5034594;28;20435;-85
2021/12/14 00:17:28;;;;;;;3.90;3.57;;;9.40;99.90;;;;;;5081101;28;20777;-83
2021/12/14 00:19:58;;;;;;;3.77;3.40;;;9.40;99.90;;;;;;5056655;28;20506;-83
2021/12/14 00:25:01;;;;;;;4.90;3.70;;;9.20;99.90;;;;;;5063232;28;20439;-85
2021/12/14 00:27:28;;;;;;;4.10;3.70;;;9.50;99.90;;;;;;5080390;28;20491;-85
2021/12/14 00:29:58;;;;;;;3.87;3.57;;;9.20;99.90;;;;;;5047111;28;20411;-83
2021/12/14 00:32:27;;;;;;;4.43;3.97;;;9.30;99.90;;;;;;5047210;28;20470;-84
2021/12/14 00:34:58;;;;;;;4.17;3.77;;;9.20;99.90;;;;;;5062444;28;20459;-84
2021/12/14 00:37:28;;;;;;;5.77;4.50;;;9.50;99.90;;;;;;5042439;28;20531;-84
2021/12/14 00:39:56;;;;;;;4.00;3.37;;;9.20;99.90;;;;;;5036876;28;20423;-84
2021/12/14 00:42:22;;;;;;;4.07;3.57;;;9.30;99.90;;;;;;5046610;28;20463;-84
2021/12/14 00:44:49;;;;;;;4.20;3.33;;;9.30;99.90;;;;;;5063835;28;20419;-84
2021/12/14 00:47:14;;;;;;;5.23;4.23;;;9.30;99.90;;;;;;5027780;28;20213;-85
2021/12/14 00:49:40;;;;;;;4.47;4.07;;;9.30;99.90;;;;;;5055740;28;20435;-84
2021/12/14 00:52:09;;;;;;;5.70;4.33;;;9.30;99.90;;;;;;5063441;28;20205;-84
2021/12/14 00:54:36;;;;;;;4.20;3.80;;;9.20;99.90;;;;;;5033810;28;20450;-84
2021/12/14 00:57:03;;;;;;;9.03;4.37;;;9.20;99.90;;;;;;5062226;28;21144;-83
2021/12/14 00:59:31;;;;;;;4.93;4.43;;;9.40;99.90;;;;;;5063677;28;20420;-84
2021/12/14 01:02:11;;;;;;;5.07;4.57;;;9.30;99.90;;;;;;5064520;28;20423;-83
2021/12/14 01:05:00;;;;;;;4.50;4.10;;;9.50;99.90;;;;;;5050270;28;20431;-84
2021/12/14 01:07:28;;;;;;;4.90;3.50;;;9.30;99.90;;;;;;5051529;28;20448;-85
2021/12/14 01:09:57;;;;;;;7.23;4.40;;;9.20;99.90;;;;;;5047356;28;20510;-84
2021/12/14 01:12:37;;;;;;;4.70;3.80;;;9.30;99.90;;;;;;5062218;28;20462;-84
2021/12/14 01:15:26;;;;;;;4.57;4.07;;;9.20;99.90;;;;;;5043629;28;20907;-85
2021/12/14 01:18:28;;;;;;;5.07;4.50;;;9.30;99.90;;;;;;5049037;28;21029;-84
2021/12/14 01:21:00;;;;;;;4.80;4.40;;;9.30;99.90;;;;;;5079231;28;20991;-85
2021/12/14 01:23:33;;;;;;;5.17;4.17;;;9.20;99.90;;;;;;5064664;28;20438;-84
2021/12/14 01:26:07;;;;;;;4.70;4.20;;;9.20;99.90;;;;;;5079458;28;20447;-84
2021/12/14 01:28:33;;;;;;;5.10;4.60;;;9.10;99.90;;;;;;5051694;28;20988;-85
2021/12/14 01:31:15;;;;;;;3.77;3.40;;;9.10;99.90;;;;;;5060494;28;20450;-85
2021/12/14 01:33:45;;;;;;;6.03;4.30;;;9.20;99.90;;;;;;5033457;28;20427;-83
2021/12/14 01:36:24;;;;;;;6.80;4.57;;;9.20;99.90;;;;;;5071331;28;20447;-83
2021/12/14 01:39:20;;;;;;;4.90;4.40;;;9.40;99.90;;;;;;5073937;28;20861;-83
2021/12/14 01:42:06;;;;;;;4.87;3.90;;;9.20;99.90;;;;;;5059330;28;20432;-84
2021/12/14 01:44:36;;;;;;;5.47;4.23;;;9.30;99.90;;;;;;5046248;28;20420;-84
2021/12/14 01:47:10;;;;;;;4.70;4.23;;;9.10;99.90;;;;;;5046489;28;20447;-84
2021/12/14 01:49:37;;;;;;;6.20;4.40;;;9.00;99.90;;;;;;5050966;28;20416;-84
2021/12/14 01:52:13;;;;;;;5.40;4.77;;;9.00;99.90;;;;;;5057497;28;20455;-85
2021/12/14 01:54:42;;;;;;;4.10;3.70;;;8.80;99.90;;;;;;5073904;28;20947;-84
2021/12/14 01:57:12;;;;;;;4.63;4.00;;;8.90;99.90;;;;;;5054919;28;20875;-85
2021/12/14 01:59:41;;;;;;;4.90;4.20;;;8.90;99.90;;;;;;5065933;28;20423;-86
2021/12/14 02:04:44;;;;;;;5.40;4.23;;;9.10;99.90;;;;;;5044476;28;20430;-84
2021/12/14 02:07:11;;;;;;;4.43;4.00;;;9.00;99.90;;;;;;5083241;28;20439;-84
2021/12/14 02:09:39;;;;;;;4.83;4.33;;;9.10;99.90;;;;;;5083305;28;20479;-84
2021/12/14 02:12:18;;;;;;;4.43;4.00;;;9.10;99.90;;;;;;5083023;28;20493;-84
2021/12/14 02:14:45;;;;;;;6.40;4.07;;;9.00;99.90;;;;;;5075776;28;20426;-85
2021/12/14 02:17:16;;;;;;;4.50;3.90;;;9.20;99.90;;;;;;5053661;28;20551;-85
2021/12/14 02:19:43;;;;;;;5.30;4.33;;;8.90;99.90;;;;;;5048908;28;20958;-85
2021/12/14 02:22:10;;;;;;;4.83;4.33;;;8.80;99.90;;;;;;5045515;28;20456;-83
2021/12/14 02:24:38;;;;;;;4.60;3.90;;;8.90;99.90;;;;;;5064010;28;20428;-85
2021/12/14 02:27:04;;;;;;;5.13;4.30;;;8.90;99.90;;;;;;5052314;28;20455;-84
2021/12/14 02:29:36;;;;;;;4.83;3.93;;;9.00;99.90;;;;;;5065975;28;20423;-82
2021/12/14 02:32:07;;;;;;;4.80;4.30;;;9.00;99.90;;;;;;5063218;28;20910;-84
2021/12/14 02:34:47;;;;;;;5.37;4.27;;;9.30;99.90;;;;;;5046188;28;20495;-84
2021/12/14 02:37:14;;;;;;;5.90;4.63;;;9.10;99.90;;;;;;5069547;28;20462;-83
2021/12/14 02:42:30;;;;;;;5.60;4.27;;;9.00;99.90;;;;;;5078795;28;20800;-84
2021/12/14 02:44:58;;;;;;;5.70;4.17;;;9.00;99.90;;;;;;5065438;28;21016;-84
2021/12/14 02:47:24;;;;;;;5.97;4.53;;;9.20;99.90;;;;;;5048883;28;20488;-85
2021/12/14 02:49:51;;;;;;;4.77;4.27;;;9.00;99.90;;;;;;5082296;28;20438;-84
2021/12/14 02:52:27;;;;;;;4.63;4.20;;;8.90;99.90;;;;;;5065051;28;20459;-85
2021/12/14 02:55:01;;;;;;;5.27;4.70;;;9.00;99.90;;;;;;5051748;28;21074;-84
2021/12/14 02:57:30;;;;;;;4.47;4.07;;;9.10;99.90;;;;;;5071690;28;20491;-85
2021/12/14 02:59:56;;;;;;;7.13;4.83;;;9.00;99.90;;;;;;5061915;28;20424;-85
2021/12/14 03:02:30;;;;;;;6.00;4.47;;;9.20;99.90;;;;;;5037845;28;20959;-84
2021/12/14 03:05:06;;;;;;;6.53;4.80;;;9.10;99.90;;;;;;5064110;28;20529;-84
2021/12/14 03:07:34;;;;;;;4.40;3.87;;;9.10;99.90;;;;;;5081602;28;20439;-83
2021/12/14 03:12:53;;;;;;;6.00;5.00;;;9.20;99.90;;;;;;5063909;28;20467;-84
2021/12/14 03:15:47;;;;;;;5.30;4.80;;;8.90;99.90;;;;;;5047772;28;20427;-84
2021/12/14 03:18:19;;;;;;;7.00;5.40;;;9.00;99.90;;;;;;5064539;28;20446;-84
2021/12/14 03:20:52;;;;;;;7.93;4.57;;;9.20;99.90;;;;;;5062064;28;20937;-85
2021/12/14 03:23:50;;;;;;;6.47;5.17;;;9.20;99.90;;;;;;5081066;28;20900;-85
2021/12/14 03:26:18;;;;;;;6.10;5.30;;;9.00;99.90;;;;;;5060905;28;20447;-84
2021/12/14 03:28:49;;;;;;;7.20;5.80;;;8.70;99.90;;;;;;5083143;28;20478;-83
2021/12/14 03:31:28;;;;;;;6.40;5.07;;;9.10;99.90;;;;;;5047612;28;20454;-85
2021/12/14 03:34:24;;;;;;;6.07;5.27;;;8.80;99.90;;;;;;5082077;28;20427;-84
2021/12/14 03:37:03;;;;;;;8.10;6.37;;;9.00;99.90;;;;;;5074671;28;21058;-84
2021/12/14 03:39:42;;;;;;;7.43;5.70;;;8.90;99.90;;;;;;5086900;28;20451;-84
2021/12/14 03:42:27;;;;;;;6.50;5.70;;;8.60;99.90;;;;;;5064339;28;20975;-83
2021/12/14 03:44:56;;;;;;;6.53;5.60;;;8.70;99.90;;;;;;5058764;28;20432;-83
2021/12/14 03:47:32;;;;;;;7.80;6.00;;;8.70;99.90;;;;;;5060910;28;20471;-84
2021/12/14 03:50:05;;;;;;;7.20;5.87;;;8.70;99.90;;;;;;5068775;28;20431;-84
2021/12/14 03:52:33;;;;;;;9.17;6.30;;;9.00;99.90;;;;;;5055781;28;20459;-84
2021/12/14 03:55:04;;;;;;;6.63;5.80;;;8.90;99.90;;;;;;5073970;28;20435;-83
2021/12/14 03:57:30;;;;;;;8.83;6.13;;;8.70;99.90;;;;;;5070781;28;20519;-85
2021/12/14 03:59:56;;;;;;;7.10;5.80;;;8.60;99.90;;;;;;5047923;28;20447;-84
2021/12/14 04:02:22;;;;;;;7.93;6.17;;;8.50;99.90;;;;;;5064306;28;20196;-83
2021/12/14 04:05:06;;;;;;;8.23;6.00;;;8.70;99.90;;;;;;5051019;28;20249;-85
2021/12/14 04:07:34;;;;;;;6.50;5.17;;;8.60;99.90;;;;;;5061808;28;20448;-84
2021/12/14 04:10:00;;;;;;;10.80;6.50;;;8.70;99.90;;;;;;5036928;28;20766;-84
2021/12/14 04:12:26;;;;;;;8.17;6.17;;;8.60;99.90;;;;;;5060434;28;20484;-83
2021/12/14 04:14:56;;;;;;;7.00;5.97;;;8.80;99.90;;;;;;5074044;28;20542;-82
2021/12/14 04:17:25;;;;;;;10.80;6.77;;;8.60;99.90;;;;;;5041896;28;20440;-84
2021/12/14 04:19:52;;;;;;;7.27;6.57;;;8.70;99.90;;;;;;5037618;28;20570;-84
2021/12/14 04:22:23;;;;;;;7.97;6.30;;;8.90;99.90;;;;;;5055923;28;20506;-84
2021/12/14 04:24:53;;;;;;;8.33;6.50;;;8.60;99.90;;;;;;5072534;28;20418;-84
2021/12/14 04:27:23;;;;;;;8.13;6.63;;;8.60;99.90;;;;;;5033614;28;20510;-83
2021/12/14 04:29:49;;;;;;;8.83;6.90;;;8.70;99.90;;;;;;5044353;28;20419;-82
2021/12/14 04:32:17;;;;;;;10.40;7.40;;;8.60;99.90;;;;;;5068222;28;20459;-83
2021/12/14 04:34:43;;;;;;;10.80;8.03;;;8.50;99.90;;;;;;5073387;28;20422;-84
2021/12/14 04:37:10;;;;;;;16.67;8.00;;;8.60;99.90;;;;;;5052581;28;20932;-83
2021/12/14 04:39:49;;;;;;;10.80;8.00;;;8.60;99.90;;;;;;5056019;28;20423;-84
2021/12/14 04:53:39;;;;;;;13.27;8.10;;;8.90;99.90;;;;;;5081591;28;20476;-85
2021/12/14 04:56:08;;;;;;;11.93;8.30;;;8.60;99.90;;;;;;5051504;28;20427;-85
2021/12/14 04:58:38;;;;;;;11.43;8.53;;;8.50;99.90;;;;;;5079090;28;20468;-86
2021/12/14 05:01:07;;;;;;;13.10;9.37;;;8.40;99.90;;;;;;5045392;28;20425;-86
2021/12/14 05:03:37;;;;;;;15.00;9.67;;;8.30;99.90;;;;;;5046601;28;20511;-85
2021/12/14 05:06:20;;;;;;;12.10;8.97;;;8.50;99.90;;;;;;5047258;28;20423;-84
2021/12/14 05:11:47;;;;;;;11.20;8.17;;;8.50;99.90;;;;;;5066142;28;20533;-85
2021/12/14 05:14:13;;;;;;;13.43;9.80;;;8.40;99.90;;;;;;5043053;28;20454;-84
2021/12/14 05:16:40;;;;;;;13.67;9.20;;;8.40;99.90;;;;;;5063583;28;20944;-85
2021/12/14 05:19:09;;;;;;;12.83;9.90;;;8.40;99.90;;;;;;5043270;28;20193;-85
2021/12/14 05:21:42;;;;;;;12.50;9.17;;;8.20;99.90;;;;;;5080603;28;20416;-85
2021/12/14 05:24:11;;;;;;;13.30;9.03;;;8.30;99.90;;;;;;5061922;28;20423;-85
2021/12/14 05:26:37;;;;;;;14.63;10.17;;;8.50;99.90;;;;;;5040993;28;20423;-85
2021/12/14 05:29:05;;;;;;;12.90;9.90;;;8.40;99.90;;;;;;5091296;28;20438;-85
2021/12/14 05:31:31;;;;;;;15.23;10.33;;;8.40;99.90;;;;;;5078137;28;20470;-85
2021/12/14 05:33:57;;;;;;;13.43;9.90;;;8.50;99.90;;;;;;5040683;28;21498;-83
2021/12/14 05:36:24;;;;;;;13.93;10.20;;;8.50;99.90;;;;;;5055076;28;20427;-83
2021/12/14 05:44:14;;;;;;;14.50;10.90;;;8.40;99.90;;;;;;5073853;28;20431;-81
2021/12/14 05:46:40;;;;;;;12.83;9.80;;;8.40;99.90;;;;;;5056585;28;20424;-79
2021/12/14 05:49:09;;;;;;;16.83;11.13;;;8.40;99.90;;;;;;5056011;28;20515;-83
2021/12/14 05:51:35;;;;;;;15.80;11.20;;;8.50;99.90;;;;;;5058694;28;20809;-83
2021/12/14 05:54:02;;;;;;;16.20;10.37;;;8.50;99.90;;;;;;5058933;28;20431;-81
2021/12/14 05:56:30;;;;;;;17.00;11.10;;;8.40;99.90;;;;;;5062351;28;20431;-82
2021/12/14 05:58:58;;;;;;;17.87;12.00;;;8.50;99.90;;;;;;5053322;28;20478;-82
2021/12/14 06:01:29;;;;;;;20.70;11.80;;;8.60;99.90;;;;;;5068093;28;20434;-85
2021/12/14 06:04:03;;;;;;;13.77;9.90;;;8.40;99.90;;;;;;5081821;28;20565;-84
2021/12/14 06:06:32;;;;;;;18.20;11.60;;;8.60;99.90;;;;;;5065065;28;20430;-86
2021/12/14 06:09:04;;;;;;;16.90;12.10;;;8.40;99.90;;;;;;5055281;28;20436;-86
2021/12/14 06:11:29;;;;;;;17.07;12.00;;;8.60;99.90;;;;;;5065914;28;20985;-86
2021/12/14 06:13:56;;;;;;;17.57;11.83;;;8.20;99.90;;;;;;5070758;28;20526;-86
2021/12/14 06:16:29;;;;;;;19.20;12.23;;;8.30;99.90;;;;;;5048341;28;20162;-84
2021/12/14 06:19:13;;;;;;;20.83;13.63;;;8.30;99.90;;;;;;5064917;28;20490;-84
2021/12/14 06:21:40;;;;;;;20.40;13.50;;;8.40;99.90;;;;;;5062107;28;20424;-83
2021/12/14 06:24:08;;;;;;;16.17;11.20;;;8.40;99.90;;;;;;5076131;28;20416;-85
2021/12/14 06:26:45;;;;;;;17.00;11.30;;;8.30;99.90;;;;;;5064107;28;20510;-85
2021/12/14 06:29:18;;;;;;;17.20;12.60;;;8.20;99.90;;;;;;5055431;28;20443;-86
2021/12/14 06:31:45;;;;;;;18.77;12.07;;;8.50;99.90;;;;;;5064179;28;20467;-85
2021/12/14 06:34:21;;;;;;;15.73;11.50;;;8.50;99.90;;;;;;5061852;28;20421;-86
2021/12/14 06:36:51;;;;;;;16.00;10.97;;;8.60;99.90;;;;;;5053891;28;20420;-85
2021/12/14 06:39:18;;;;;;;17.00;11.07;;;8.40;99.90;;;;;;5066186;28;20435;-82
2021/12/14 06:41:44;;;;;;;14.43;10.20;;;8.40;99.90;;;;;;5068017;28;20427;-86
2021/12/14 06:44:10;;;;;;;13.60;10.10;;;8.40;99.90;;;;;;5063891;28;20439;-85
2021/12/14 06:46:38;;;;;;;16.37;10.73;;;8.50;99.90;;;;;;5080928;28;20223;-86
2021/12/14 06:49:06;;;;;;;16.00;10.63;;;8.40;99.90;;;;;;5068589;28;20466;-85
2021/12/14 06:52:02;;;;;;;19.87;11.77;;;8.30;99.90;;;;;;5054489;28;20467;-83
2021/12/14 06:54:30;;;;;;;17.77;11.23;;;8.30;99.90;;;;;;5053710;28;20426;-85
2021/12/14 06:57:02;;;;;;;17.00;11.10;;;8.30;99.90;;;;;;5027777;28;20435;-84
2021/12/14 06:59:28;;;;;;;15.67;10.80;;;8.40;99.90;;;;;;5053356;28;20502;-84
2021/12/14 07:01:56;;;;;;;16.53;11.50;;;8.20;99.90;;;;;;5056918;28;20427;-82
2021/12/14 07:04:26;;;;;;;16.13;11.03;;;8.20;99.90;;;;;;5023646;28;20526;-83
2021/12/14 07:07:04;;;;;;;16.33;10.90;;;8.40;99.90;;;;;;5054567;28;20543;-84
2021/12/14 07:09:34;;;;;;;14.90;10.40;;;8.20;99.90;;;;;;5070247;28;20419;-85
2021/12/14 07:12:18;;;;;;;12.83;9.90;;;8.40;99.90;;;;;;5039411;28;20456;-83
2021/12/14 07:14:54;;;;;;;16.30;11.00;;;8.40;99.90;;;;;;5037456;28;20463;-82
2021/12/14 07:17:41;;;;;;;16.60;10.93;;;8.20;99.90;;;;;;5066641;28;20440;-83
2021/12/14 07:20:21;;;;;;;13.90;10.70;;;8.30;99.90;;;;;;5082368;28;20449;-81
2021/12/14 07:22:50;;;;;;;17.07;12.07;;;8.20;99.90;;;;;;5074451;28;20428;-85
2021/12/14 07:25:21;;;;;;;16.37;11.07;;;8.40;99.90;;;;;;5030975;28;20801;-82
2021/12/14 07:27:59;;;;;;;19.87;12.93;;;8.10;99.90;;;;;;5088214;28;20474;-83
2021/12/14 07:30:31;;;;;;;17.67;12.20;;;8.10;99.90;;;;;;5071564;28;21253;-84
2021/12/14 07:33:16;;;;;;;16.03;11.67;;;8.20;99.90;;;;;;5023433;28;20503;-84
2021/12/14 07:35:57;;;;;;;15.13;10.50;;;8.20;99.90;;;;;;5050937;28;20437;-82
2021/12/14 07:38:38;;;;;;;19.30;13.37;;;8.40;99.90;;;;;;5050004;28;20443;-84
2021/12/14 07:41:12;;;;;;;19.37;11.97;;;8.40;99.90;;;;;;5050202;28;20507;-84
2021/12/14 07:43:48;;;;;;;16.80;12.50;;;8.50;99.90;;;;;;5054673;28;20419;-85
2021/12/14 07:46:19;;;;;;;16.10;12.37;;;8.40;99.90;;;;;;5067958;28;20426;-85
2021/12/14 07:48:50;;;;;;;17.90;12.30;;;8.50;99.90;;;;;;5034747;28;20433;-84
2021/12/14 07:51:19;;;;;;;18.43;12.30;;;8.30;99.90;;;;;;5046673;28;20413;-84
2021/12/14 07:53:52;;;;;;;20.00;13.10;;;8.50;99.90;;;;;;5064365;28;20415;-83
2021/12/14 07:56:44;;;;;;;20.40;13.47;;;8.20;99.90;;;;;;5045639;28;21352;-82
2021/12/14 07:59:26;;;;;;;19.73;12.70;;;8.50;99.90;;;;;;5066404;28;20443;-85
2021/12/14 08:02:21;;;;;;;18.60;13.47;;;8.40;99.90;;;;;;5049497;28;20450;-85
2021/12/14 08:04:52;;;;;;;18.63;11.80;;;8.30;99.90;;;;;;5054900;28;20910;-82
2021/12/14 08:07:34;;;;;;;19.10;12.67;;;8.30;99.90;;;;;;5049600;28;20458;-82
2021/12/14 08:10:08;;;;;;;17.03;12.43;;;8.40;99.90;;;;;;5016171;28;20481;-83
2021/12/14 08:12:45;;;;;;;17.93;12.50;;;8.50;99.90;;;;;;5020454;28;20546;-81
2021/12/14 08:15:53;;;;;;;21.40;12.17;;;8.50;99.90;;;;;;5072783;28;20442;-81
2021/12/14 08:18:29;;;;;;;17.53;12.30;;;8.50;99.90;;;;;;5025149;28;20432;-82
2021/12/14 08:20:59;;;;;;;15.90;11.80;;;8.50;99.90;;;;;;5061782;28;20926;-83
2021/12/14 08:23:37;;;;;;;20.97;11.87;;;8.50;99.90;;;;;;5019361;28;20811;-83
2021/12/14 08:26:06;;;;;;;18.80;12.13;;;8.40;99.90;;;;;;5027938;28;20430;-85
2021/12/14 08:28:32;;;;;;;18.80;12.60;;;8.50;99.90;;;;;;5071341;28;20459;-84
2021/12/14 08:31:01;;;;;;;20.50;13.20;;;8.40;99.90;;;;;;5054851;28;20454;-85
2021/12/14 08:33:30;;;;;;;19.50;14.20;;;8.40;99.90;;;;;;5026490;28;20832;-84
2021/12/14 08:35:59;;;;;;;23.63;14.43;;;8.30;99.90;;;;;;5033876;28;20420;-82
2021/12/14 08:38:27;;;;;;;22.87;14.50;;;8.50;99.90;;;;;;5082579;28;20484;-83
2021/12/14 08:40:58;;;;;;;23.77;14.83;;;8.50;99.90;;;;;;5024929;28;20835;-84
2021/12/14 08:43:31;;;;;;;23.80;15.13;;;8.40;99.90;;;;;;5055432;28;20512;-84
2021/12/14 08:46:09;;;;;;;25.20;16.40;;;8.40;99.90;;;;;;5062465;28;20442;-85
2021/12/14 08:48:41;;;;;;;24.07;14.97;;;8.50;99.90;;;;;;5041461;28;20949;-84
2021/12/14 08:51:15;;;;;;;24.00;15.63;;;8.40;99.90;;;;;;5046417;28;20398;-84
2021/12/14 08:54:10;;;;;;;23.40;15.00;;;8.20;99.90;;;;;;5047172;28;20792;-83
2021/12/14 08:56:43;;;;;;;25.00;15.93;;;8.60;99.90;;;;;;5051603;28;20411;-83
2021/12/14 08:59:09;;;;;;;23.80;15.90;;;8.50;99.90;;;;;;5050876;28;20431;-84
2021/12/14 09:01:39;;;;;;;21.03;15.30;;;8.40;99.90;;;;;;5072258;28;20420;-83
2021/12/14 09:04:12;;;;;;;25.63;15.97;;;8.50;99.90;;;;;;5044474;28;20208;-84
2021/12/14 09:06:41;;;;;;;23.70;15.70;;;8.50;99.90;;;;;;5050467;28;20964;-83
2021/12/14 09:09:12;;;;;;;25.13;15.77;;;8.50;99.90;;;;;;5070990;28;20419;-83
2021/12/14 09:11:41;;;;;;;21.10;14.20;;;8.30;99.90;;;;;;5065712;28;20448;-84
2021/12/14 09:14:09;;;;;;;21.47;14.73;;;8.40;99.90;;;;;;5031606;28;20435;-81
2021/12/14 09:16:36;;;;;;;22.13;14.40;;;8.50;99.90;;;;;;5012482;28;20423;-83
2021/12/14 09:19:13;;;;;;;23.53;15.37;;;8.40;99.90;;;;;;5052510;28;20416;-82
2021/12/14 09:21:42;;;;;;;24.83;17.00;;;8.20;99.90;;;;;;5047349;28;20499;-82
2021/12/14 09:24:12;;;;;;;25.33;16.07;;;8.50;99.90;;;;;;5052560;28;20446;-83
2021/12/14 09:26:43;;;;;;;26.47;15.90;;;8.40;99.90;;;;;;5055295;28;20414;-82
2021/12/14 09:29:12;;;;;;;24.00;15.17;;;8.50;99.90;;;;;;5058329;28;20449;-82
2021/12/14 09:31:40;;;;;;;25.00;15.80;;;8.50;99.90;;;;;;5072114;28;20885;-83
2021/12/14 09:34:09;;;;;;;26.67;16.53;;;8.40;99.90;;;;;;5034463;28;20775;-83
2021/12/14 09:36:35;;;;;;;23.27;14.63;;;8.50;99.90;;;;;;5034069;28;20462;-82
2021/12/14 09:39:11;;;;;;;24.70;15.90;;;8.50;99.90;;;;;;5039402;28;20424;-85
2021/12/14 09:41:40;;;;;;;24.87;16.20;;;8.60;99.90;;;;;;5056249;28;20429;-83
2021/12/14 09:44:09;;;;;;;23.63;15.87;;;8.60;99.90;;;;;;5008733;28;20503;-84
2021/12/14 09:46:36;;;;;;;23.20;15.80;;;8.70;99.90;;;;;;5037019;28;20452;-83
2021/12/14 09:49:06;;;;;;;23.90;16.77;;;8.80;99.90;;;;;;5048005;28;20420;-84
2021/12/14 09:51:38;;;;;;;24.50;16.90;;;8.70;99.90;;;;;;5042202;28;20517;-82
2021/12/14 09:54:07;;;;;;;25.70;17.23;;;8.70;99.90;;;;;;5055306;28;20440;-83
2021/12/14 09:56:38;;;;;;;27.70;17.83;;;8.70;99.90;;;;;;5009696;28;20420;-85
2021/12/14 09:59:06;;;;;;;28.37;18.23;;;8.70;99.90;;;;;;5064086;28;20944;-83
2021/12/14 10:01:44;;;;;;;24.77;17.87;;;8.70;99.90;;;;;;5037990;28;20419;-85
2021/12/14 10:04:14;;;;;;;26.30;17.60;;;8.70;99.90;;;;;;5029083;28;20420;-83
2021/12/14 10:06:41;;;;;;;25.63;17.07;;;8.80;99.90;;;;;;5053686;28;20862;-83
2021/12/14 10:09:11;;;;;;;35.03;20.33;;;8.80;99.90;;;;;;5040860;28;20796;-83
2021/12/14 10:12:03;;;;;;;28.13;19.63;;;8.90;99.90;;;;;;5038363;28;20832;-83
2021/12/14 10:14:36;;;;;;;31.40;18.80;;;8.80;99.90;;;;;;5046534;28;20460;-82
2021/12/14 10:17:11;;;;;;;26.70;18.00;;;8.70;99.90;;;;;;5057976;28;20895;-83
2021/12/14 10:19:38;;;;;;;26.37;18.20;;;8.70;99.90;;;;;;5058713;28;20449;-84
2021/12/14 10:22:15;;;;;;;27.60;17.27;;;8.80;99.90;;;;;;5030139;28;20420;-83
2021/12/14 10:24:41;;;;;;;25.77;16.73;;;8.70;99.90;;;;;;5035663;28;20443;-82
2021/12/14 10:27:11;;;;;;;28.53;19.17;;;8.80;99.90;;;;;;5041964;28;20439;-85
2021/12/14 10:29:37;;;;;;;31.00;18.87;;;8.80;99.90;;;;;;5041871;28;20431;-84
2021/12/14 10:32:14;;;;;;;26.80;17.87;;;8.60;99.90;;;;;;5042206;28;21007;-85
2021/12/14 10:34:46;;;;;;;30.70;19.73;;;8.60;99.90;;;;;;5033279;28;20459;-83
2021/12/14 10:37:25;;;;;;;28.30;18.67;;;8.70;99.90;;;;;;5057600;28;20478;-83
2021/12/14 10:45:18;;;;;;;29.10;17.87;;;8.70;99.90;;;;;;5051387;28;20443;-84
2021/12/14 10:47:45;;;;;;;30.07;19.47;;;8.60;99.90;;;;;;5041089;28;20455;-85
2021/12/14 10:50:14;;;;;;;31.53;19.83;;;8.60;99.90;;;;;;5056900;28;20451;-85
2021/12/14 10:52:43;;;;;;;28.93;18.50;;;8.50;99.90;;;;;;5015411;28;20486;-85
2021/12/14 10:55:19;;;;;;;32.57;19.60;;;8.50;99.90;;;;;;5021967;28;20419;-82
2021/12/14 10:57:46;;;;;;;24.90;17.30;;;8.50;99.90;;;;;;5062823;28;20444;-83
2021/12/14 11:00:32;;;;;;;24.83;17.80;;;8.70;99.90;;;;;;5055207;28;20431;-83
2021/12/14 11:03:03;;;;;;;23.50;16.07;;;8.80;99.90;;;;;;5068730;28;20451;-84
2021/12/14 11:05:32;;;;;;;24.07;15.57;;;8.70;99.90;;;;;;5057487;28;20522;-83
2021/12/14 11:07:58;;;;;;;24.90;17.13;;;9.00;99.90;;;;;;5044339;28;20444;-83
2021/12/14 11:10:33;;;;;;;24.53;17.80;;;9.10;99.90;;;;;;5054164;28;20412;-84
2021/12/14 11:13:08;;;;;;;27.00;17.50;;;9.20;99.90;;;;;;5050685;28;20784;-84
2021/12/14 11:15:43;;;;;;;27.63;17.13;;;9.00;99.90;;;;;;5056589;28;20442;-82
2021/12/14 11:18:15;;;;;;;27.33;17.17;;;9.00;99.90;;;;;;5057875;28;21015;-82
2021/12/14 11:21:07;;;;;;;25.27;17.60;;;8.90;99.90;;;;;;5056824;28;20604;-82
2021/12/14 11:23:40;;;;;;;27.30;17.90;;;9.20;99.90;;;;;;5050582;28;20419;-82
2021/12/14 11:26:23;;;;;;;24.70;16.00;;;8.90;99.90;;;;;;5073157;28;20479;-84
2021/12/14 11:28:55;;;;;;;21.90;15.80;;;8.90;99.90;;;;;;5089223;28;21012;-81
2021/12/14 11:31:30;;;;;;;24.10;17.03;;;9.10;99.90;;;;;;5034409;28;20462;-82
2021/12/14 11:34:09;;;;;;;24.10;16.10;;;9.10;99.90;;;;;;5051724;28;20419;-83
2021/12/14 11:36:45;;;;;;;24.13;15.10;;;9.10;99.90;;;;;;5058929;28;20416;-82
2021/12/14 11:39:24;;;;;;;23.50;16.40;;;9.30;99.90;;;;;;5035018;28;20447;-82
2021/12/14 11:41:59;;;;;;;20.20;15.10;;;9.10;99.90;;;;;;5038151;28;20975;-83
2021/12/14 11:44:36;;;;;;;22.50;14.87;;;9.10;99.90;;;;;;5048635;28;20677;-85
2021/12/14 11:50:24;;;;;;;23.40;16.53;;;9.40;99.90;;;;;;5069476;28;20435;-85
2021/12/14 11:53:02;;;;;;;21.93;15.07;;;9.30;99.90;;;;;;5028580;28;20996;-85
2021/12/14 11:55:33;;;;;;;23.80;16.33;;;9.30;99.90;;;;;;5055054;28;20497;-84
2021/12/14 11:58:10;;;;;;;21.73;16.40;;;9.40;99.90;;;;;;5055701;28;20448;-82
2021/12/14 12:00:49;;;;;;;21.80;15.20;;;9.30;99.90;;;;;;5062871;28;20546;-84
2021/12/14 12:03:30;;;;;;;24.20;15.27;;;9.20;99.90;;;;;;5072743;28;20424;-83
2021/12/14 12:06:14;;;;;;;20.87;15.27;;;9.10;99.90;;;;;;5051793;28;20477;-83
2021/12/14 12:11:41;;;;;;;27.07;17.00;;;9.30;99.90;;;;;;5073880;28;20951;-85
2021/12/14 12:14:21;;;;;;;26.13;15.97;;;9.30;99.90;;;;;;5042186;28;20427;-85
2021/12/14 12:16:47;;;;;;;20.13;15.03;;;9.20;99.90;;;;;;5055621;28;20427;-85
2021/12/14 12:19:20;;;;;;;26.40;17.37;;;9.10;99.90;;;;;;5036805;28;20430;-85
2021/12/14 12:21:48;;;;;;;24.17;16.03;;;9.10;99.90;;;;;;5052840;28;20737;-85
2021/12/14 12:24:45;;;;;;;26.90;18.60;;;9.40;99.90;;;;;;5053084;28;20427;-83
2021/12/14 12:27:22;;;;;;;23.37;17.07;;;9.20;99.90;;;;;;5075917;28;20445;-85
2021/12/14 12:30:03;;;;;;;26.57;17.40;;;9.30;99.90;;;;;;5044597;28;20427;-85
2021/12/14 12:32:29;;;;;;;26.20;16.53;;;9.30;99.90;;;;;;5067130;28;20471;-85
2021/12/14 12:34:55;;;;;;;26.20;15.60;;;9.30;99.90;;;;;;5032944;28;20462;-85
2021/12/14 12:37:41;;;;;;;24.73;16.23;;;9.30;99.90;;;;;;5050549;28;20706;-83
2021/12/14 12:40:14;;;;;;;27.30;17.83;;;9.20;99.90;;;;;;5031097;28;20428;-85
2021/12/14 12:42:41;;;;;;;23.10;16.63;;;9.30;99.90;;;;;;5047386;28;20881;-85
2021/12/14 12:45:33;;;;;;;28.90;17.70;;;9.40;99.90;;;;;;5032883;28;20438;-82
2021/12/14 12:48:01;;;;;;;25.07;16.93;;;9.30;99.90;;;;;;5067483;28;20465;-83
2021/12/14 12:50:28;;;;;;;25.30;16.80;;;9.30;99.90;;;;;;5055219;28;20423;-83
2021/12/14 12:52:55;;;;;;;25.60;17.73;;;9.30;99.90;;;;;;5059569;28;20464;-81
2021/12/14 12:55:30;;;;;;;23.37;17.67;;;9.30;99.90;;;;;;5054833;28;20480;-83
2021/12/14 12:58:15;;;;;;;24.07;16.87;;;9.40;99.90;;;;;;5042896;28;20497;-83
2021/12/14 13:00:55;;;;;;;22.20;16.70;;;9.40;99.90;;;;;;5019164;28;21054;-82
2021/12/14 13:03:26;;;;;;;24.90;17.80;;;9.50;99.90;;;;;;5055339;28;20450;-83
2021/12/14 13:06:00;;;;;;;22.40;15.90;;;9.50;99.90;;;;;;5055800;28;20431;-83
2021/12/14 13:08:31;;;;;;;23.40;16.43;;;9.40;99.90;;;;;;5042536;28;20473;-84
2021/12/14 13:11:01;;;;;;;23.43;17.40;;;9.60;99.90;;;;;;5038970;28;20434;-83
2021/12/14 13:13:32;;;;;;;23.00;16.37;;;9.50;99.90;;;;;;5027178;28;20534;-84
2021/12/14 13:16:17;;;;;;;23.43;16.03;;;9.50;99.90;;;;;;5045948;28;20439;-85
2021/12/14 13:19:29;;;;;;;23.73;18.13;;;9.60;99.90;;;;;;5055446;28;20812;-84
2021/12/14 13:21:57;;;;;;;24.93;16.97;;;9.40;99.90;;;;;;5034254;28;20560;-83
2021/12/14 13:24:31;;;;;;;25.53;17.60;;;9.30;99.90;;;;;;5032954;28;20734;-83
2021/12/14 13:27:22;;;;;;;22.67;16.47;;;9.30;99.90;;;;;;5048528;28;20508;-84
2021/12/14 13:29:56;;;;;;;23.50;17.73;;;9.30;99.90;;;;;;5068879;28;20471;-82
2021/12/14 13:32:27;;;;;;;22.73;17.30;;;9.40;99.90;;;;;;5051556;28;20471;-84
2021/12/14 13:35:07;;;;;;;22.53;17.30;;;9.30;99.90;;;;;;5030956;28;20959;-84
2021/12/14 13:37:39;;;;;;;26.37;17.40;;;9.30;99.90;;;;;;5066563;28;20435;-84
2021/12/14 13:40:12;;;;;;;24.07;16.43;;;9.30;99.90;;;;;;5048282;28;20427;-82
2021/12/14 13:43:09;;;;;;;26.60;17.70;;;9.30;99.90;;;;;;5019298;28;20505;-84
2021/12/14 13:45:37;;;;;;;25.63;17.33;;;9.20;99.90;;;;;;5082360;28;20432;-83
2021/12/14 13:48:06;;;;;;;23.20;18.13;;;9.30;99.90;;;;;;5035367;28;20502;-83
2021/12/14 13:50:37;;;;;;;23.83;16.70;;;9.50;99.90;;;;;;5052095;28;20474;-83
2021/12/14 13:53:04;;;;;;;22.03;15.80;;;9.40;99.90;;;;;;5069004;28;20463;-84
2021/12/14 13:55:42;;;;;;;25.50;18.70;;;9.40;99.90;;;;;;5047569;28;20431;-82
2021/12/14 13:58:35;;;;;;;27.23;17.97;;;9.40;99.90;;;;;;5057970;28;20450;-84
2021/12/14 14:01:12;;;;;;;23.37;17.60;;;9.60;99.90;;;;;;5048486;28;20446;-83